< < Back
Terminal Aerodrome Forecast


Current Version              Previous Versions:   1  2  3  4  5  6  7  8  9  

Terminal Aerodrome Forecast

484
FTUS42 KFFC 260529
TAFFTY
TAF
KFTY 260529Z 2606/2706 23008KT P6SM FEW010 SCT025 BKN100
     FM261000 24008KT 5SM BR BKN012 BKN035
     FM261300 28010KT P6SM BKN020
     FM261600 29014G24KT P6SM SCT050
     FM270200 32008KT P6SM FEW250=

Latest METAR

263
SAUS70 KWBC 270700 RRE
MTRFTY
METAR KFTY 270653Z 00000KT 10SM CLR 12/08 A2980 RMK AO2 SLP084
T01220083


USA.gov is the U.S. government's official web portal to all federal, state and local government web resources and services.